Time;durP1;ratioP1;P1;durP2;ratioP2;P2;SDS_P1;SDS_P2;PMS_P1;PMS_P2;Temp;Humidity;BMP_temperature;BMP_pressure;BME280_temperature;BME280_humidity;BME280_pressure;Samples;Min_cycle;Max_cycle;Signal;HPM_P1;HPM_P2
2022/03/24 00:00:38;;;;;;;;;;;;;;;1.83;50.68;96043.91;5073657;28;1031;-48
2022/03/24 00:03:06;;;;;;;;;;;;;;;1.44;50.85;96051.31;5073361;28;976;-48
2022/03/24 00:05:32;;;;;;;;;;;;;;;1.23;51.57;96044.56;5073211;28;1047;-49
2022/03/24 00:07:58;;;;;;;;;;;;;;;1.44;51.13;96048.69;5073398;28;1091;-49
2022/03/24 00:10:24;;;;;;;;;;;;;;;1.70;51.17;96035.84;5073469;28;976;-48
2022/03/24 00:12:51;;;;;;;;;;;;;;;1.43;51.41;96036.41;5073212;28;1914;-49
2022/03/24 00:15:17;;;;;;;;;;;;;;;0.90;52.53;96038.34;5073294;28;1008;-49
2022/03/24 00:17:44;;;;;;;;;;;;;;;0.94;53.00;96032.00;5073445;28;1043;-49
2022/03/24 00:20:12;;;;;;;;;;;;;;;1.23;52.78;96023.47;5072944;28;1079;-48
2022/03/24 00:22:38;;;;;;;;;;;;;;;1.06;52.89;96027.84;5073523;28;1098;-49
2022/03/24 00:25:04;;;;;;;;;;;;;;;0.98;53.13;96020.34;5073159;28;976;-48
2022/03/24 00:27:31;;;;;;;;;;;;;;;0.96;52.87;96014.31;5073442;28;1040;-48
2022/03/24 00:29:57;;;;;;;;;;;;;;;1.00;53.02;96017.66;5073033;28;1031;-48
2022/03/24 00:32:23;;;;;;;;;;;;;;;1.10;52.41;96012.75;5073164;28;1909;-49
2022/03/24 00:34:49;;;;;;;;;;;;;;;1.24;52.49;96007.59;5072742;28;984;-49
2022/03/24 00:37:17;;;;;;;;;;;;;;;1.11;52.58;96006.56;5073648;28;957;-49
2022/03/24 00:39:43;;;;;;;;;;;;;;;1.24;53.08;95999.69;5073170;28;1036;-48
2022/03/24 00:42:12;;;;;;;;;;;;;;;1.28;52.83;96001.22;5072881;28;1992;-49
2022/03/24 00:44:42;;;;;;;;;;;;;;;1.31;53.11;96006.31;5072887;28;1028;-49
2022/03/24 00:47:13;;;;;;;;;;;;;;;1.36;52.33;95995.53;5072949;28;1033;-50
2022/03/24 00:49:40;;;;;;;;;;;;;;;1.22;53.07;95995.44;5073061;28;1019;-49
2022/03/24 00:52:09;;;;;;;;;;;;;;;0.88;54.15;95995.47;5072714;28;1922;-49
2022/03/24 00:54:35;;;;;;;;;;;;;;;0.98;53.78;95996.66;5073020;28;1104;-50
2022/03/24 00:57:01;;;;;;;;;;;;;;;1.21;53.19;95989.31;5072883;28;1004;-49
2022/03/24 00:59:27;;;;;;;;;;;;;;;0.95;53.70;95990.72;5072830;28;1020;-50
2022/03/24 01:01:56;;;;;;;;;;;;;;;0.78;54.50;95981.94;5072757;28;1037;-50
2022/03/24 01:04:22;;;;;;;;;;;;;;;0.55;54.73;95985.78;5072583;28;1242;-49
2022/03/24 01:06:48;;;;;;;;;;;;;;;0.27;55.82;95982.88;5072830;28;1979;-49
2022/03/24 01:09:14;;;;;;;;;;;;;;;0.32;56.13;95980.84;5072718;28;1064;-50
2022/03/24 01:11:40;;;;;;;;;;;;;;;0.53;55.56;95978.88;5072796;28;1918;-49
2022/03/24 01:14:07;;;;;;;;;;;;;;;0.58;55.33;95976.88;5072629;28;981;-50
2022/03/24 01:16:34;;;;;;;;;;;;;;;0.47;55.52;95977.41;5076451;28;1116;-49
2022/03/24 01:19:01;;;;;;;;;;;;;;;0.58;55.27;95976.88;5076708;28;948;-49
2022/03/24 01:21:27;;;;;;;;;;;;;;;0.85;54.38;95974.53;5076225;28;1033;-50
2022/03/24 01:23:53;;;;;;;;;;;;;;;1.00;54.59;95967.63;5076592;28;1055;-50
2022/03/24 01:26:19;;;;;;;;;;;;;;;0.91;54.28;95973.38;5076385;28;1084;-49
2022/03/24 01:28:45;;;;;;;;;;;;;;;0.79;54.67;95966.97;5076273;28;1028;-50
2022/03/24 01:31:12;;;;;;;;;;;;;;;0.58;55.04;95968.97;5076006;28;1905;-50
2022/03/24 01:33:39;;;;;;;;;;;;;;;0.25;56.29;95975.06;5076334;28;1060;-50
2022/03/24 01:36:06;;;;;;;;;;;;;;;0.37;56.50;95963.03;5076090;28;997;-50
2022/03/24 01:38:32;;;;;;;;;;;;;;;0.36;56.10;95962.19;5076376;28;1044;-49
2022/03/24 01:40:58;;;;;;;;;;;;;;;0.57;55.87;95962.88;5076052;28;1003;-50
2022/03/24 01:43:25;;;;;;;;;;;;;;;0.32;55.88;95962.41;5074747;28;1025;-50
2022/03/24 01:45:51;;;;;;;;;;;;;;;0.08;56.84;95960.13;5076225;28;1072;-50
2022/03/24 01:48:17;;;;;;;;;;;;;;;0.04;57.04;95965.59;5076255;28;1032;-50
2022/03/24 01:50:44;;;;;;;;;;;;;;;0.33;56.88;95959.72;5075730;28;1198;-50
2022/03/24 01:53:12;;;;;;;;;;;;;;;0.17;56.84;95975.44;5076095;28;1902;-49
2022/03/24 01:55:39;;;;;;;;;;;;;;;0.23;56.75;95962.88;5075775;28;1089;-50
2022/03/24 01:58:05;;;;;;;;;;;;;;;-0.02;57.51;95958.88;5075889;28;956;-50
2022/03/24 02:00:31;;;;;;;;;;;;;;;0.23;56.63;95947.09;5075586;28;1079;-50
2022/03/24 02:03:02;;;;;;;;;;;;;;;0.08;57.08;95960.13;5075962;28;969;-50
2022/03/24 02:05:32;;;;;;;;;;;;;;;-0.01;57.14;95950.91;5075696;28;1047;-50
2022/03/24 02:08:03;;;;;;;;;;;;;;;0.23;56.51;95952.38;5075632;28;1064;-49
2022/03/24 02:10:30;;;;;;;;;;;;;;;0.08;57.41;95954.88;5075586;28;1043;-50
2022/03/24 02:12:56;;;;;;;;;;;;;;;0.36;56.52;95954.31;5075289;28;1910;-51
2022/03/24 02:15:23;;;;;;;;;;;;;;;0.22;57.01;95961.19;5075365;28;1978;-51
2022/03/24 02:17:49;;;;;;;;;;;;;;;0.33;56.69;95954.44;5075409;28;791;-50
2022/03/24 02:20:16;;;;;;;;;;;;;;;0.09;57.25;95955.72;5075332;28;1024;-51
2022/03/24 02:22:44;;;;;;;;;;;;;;;0.24;56.98;95947.03;5075504;28;999;-50
2022/03/24 02:25:10;;;;;;;;;;;;;;;0.11;57.36;95952.06;5075396;28;1043;-51
2022/03/24 02:27:36;;;;;;;;;;;;;;;0.09;56.91;95953.91;5075206;28;1024;-51
2022/03/24 02:30:03;;;;;;;;;;;;;;;0.11;56.83;95952.06;5075390;28;1063;-51
2022/03/24 02:32:30;;;;;;;;;;;;;;;-0.19;57.44;95951.81;5075241;28;1934;-51
2022/03/24 02:34:56;;;;;;;;;;;;;;;0.06;57.29;95956.72;5075165;28;1063;-51
2022/03/24 02:37:23;;;;;;;;;;;;;;;-0.11;57.31;95957.56;5075433;28;961;-51
2022/03/24 02:39:51;;;;;;;;;;;;;;;0.03;57.05;95950.78;5075111;28;1012;-51
2022/03/24 02:42:20;;;;;;;;;;;;;;;0.09;57.06;95963.59;5074771;28;933;-51
2022/03/24 02:44:48;;;;;;;;;;;;;;;-0.20;57.61;95958.03;5075147;28;1044;-50
2022/03/24 02:47:14;;;;;;;;;;;;;;;-0.45;58.34;95947.88;5074946;28;957;-51
2022/03/24 02:49:41;;;;;;;;;;;;;;;-0.47;58.37;95941.84;5074805;28;1099;-51
2022/03/24 02:52:07;;;;;;;;;;;;;;;-0.42;58.59;95943.31;5074383;28;1910;-51
2022/03/24 02:54:34;;;;;;;;;;;;;;;-0.30;58.42;95946.28;5074797;28;1003;-51
2022/03/24 02:57:00;;;;;;;;;;;;;;;-0.46;58.69;95939.13;5074459;28;949;-51
2022/03/24 02:59:26;;;;;;;;;;;;;;;-0.53;58.92;95944.75;5074944;28;1027;-51
2022/03/24 03:01:55;;;;;;;;;;;;;;;-0.38;58.85;95951.03;5074412;28;1096;-50
2022/03/24 03:04:22;;;;;;;;;;;;;;;-0.34;59.00;95949.94;5074452;28;1017;-50
2022/03/24 03:06:48;;;;;;;;;;;;;;;-0.45;58.66;95940.00;5074343;28;973;-51
2022/03/24 03:09:16;;;;;;;;;;;;;;;-0.27;58.62;95944.31;5074563;28;1072;-51
2022/03/24 03:11:46;;;;;;;;;;;;;;;-0.31;58.71;95942.78;5074100;28;1910;-51
2022/03/24 03:14:12;;;;;;;;;;;;;;;-0.38;58.51;95938.75;5074587;28;961;-51
2022/03/24 03:16:39;;;;;;;;;;;;;;;-0.38;58.60;95945.78;5074371;28;1008;-50
2022/03/24 03:19:08;;;;;;;;;;;;;;;-0.37;58.72;95942.25;5074262;28;953;-50
2022/03/24 03:21:37;;;;;;;;;;;;;;;-0.44;58.60;95944.31;5074162;28;933;-51
2022/03/24 03:24:04;;;;;;;;;;;;;;;-0.50;58.41;95949.84;5074098;28;937;-51
2022/03/24 03:26:30;;;;;;;;;;;;;;;-0.54;58.55;95937.81;5074209;28;937;-51
2022/03/24 03:28:56;;;;;;;;;;;;;;;-0.85;59.57;95939.28;5074228;28;1043;-51
2022/03/24 03:31:23;;;;;;;;;;;;;;;-0.87;59.79;95938.50;5074069;28;1996;-51
2022/03/24 03:33:51;;;;;;;;;;;;;;;-0.96;59.83;95942.41;5073728;28;1835;-50
2022/03/24 03:36:18;;;;;;;;;;;;;;;-1.12;60.47;95944.03;5074110;28;1033;-51
2022/03/24 03:38:45;;;;;;;;;;;;;;;-0.88;59.61;95942.03;5073299;28;976;-50
2022/03/24 03:41:12;;;;;;;;;;;;;;;-0.65;59.32;95947.03;5074139;28;953;-51
2022/03/24 03:43:38;;;;;;;;;;;;;;;-0.56;58.97;95951.00;5073662;28;1032;-50
2022/03/24 03:46:05;;;;;;;;;;;;;;;-0.72;59.29;95948.28;5073783;28;1122;-50
2022/03/24 03:48:31;;;;;;;;;;;;;;;-0.74;59.92;95947.50;5073621;28;995;-51
2022/03/24 03:50:57;;;;;;;;;;;;;;;-0.67;59.45;95958.53;5073433;28;1138;-51
2022/03/24 03:53:23;;;;;;;;;;;;;;;-0.72;59.92;95953.53;5073408;28;1906;-51
2022/03/24 03:55:49;;;;;;;;;;;;;;;-0.80;59.46;95950.41;5073801;28;953;-51
2022/03/24 03:58:15;;;;;;;;;;;;;;;-0.91;60.35;95955.28;5073448;28;1031;-51
2022/03/24 04:00:53;;;;;;;;;;;;;;;-0.81;60.05;95956.59;5073736;28;969;-50
2022/03/24 04:03:20;;;;;;;;;;;;;;;-0.82;60.11;95954.88;5073453;28;1007;-51
2022/03/24 04:05:46;;;;;;;;;;;;;;;-0.82;60.08;95944.38;5073475;28;920;-50
2022/03/24 04:08:13;;;;;;;;;;;;;;;-0.98;59.97;95950.34;5073277;28;1064;-51
2022/03/24 04:10:39;;;;;;;;;;;;;;;-0.94;59.80;95944.97;5073492;28;1082;-51
2022/03/24 04:13:05;;;;;;;;;;;;;;;-1.09;60.68;95949.97;5073082;28;1946;-51
2022/03/24 04:15:33;;;;;;;;;;;;;;;-1.12;60.95;95947.53;5073582;28;1052;-51
2022/03/24 04:18:02;;;;;;;;;;;;;;;-1.29;61.38;95953.53;5073015;28;1063;-51
2022/03/24 04:20:29;;;;;;;;;;;;;;;-1.27;61.87;95948.19;5073334;28;976;-50
2022/03/24 04:22:59;;;;;;;;;;;;;;;-1.08;61.04;95954.31;5072091;28;968;-50
2022/03/24 04:25:26;;;;;;;;;;;;;;;-0.94;60.52;95961.56;5073311;28;1068;-50
2022/03/24 04:27:52;;;;;;;;;;;;;;;-0.83;59.92;95961.06;5073209;28;1041;-50
2022/03/24 04:30:18;;;;;;;;;;;;;;;-0.46;59.08;95954.88;5073331;28;1015;-50
2022/03/24 04:32:45;;;;;;;;;;;;;;;-0.83;59.25;95953.19;5072852;28;1992;-50
2022/03/24 04:35:16;;;;;;;;;;;;;;;-1.11;60.58;95961.50;5073195;28;1044;-50
2022/03/24 04:37:43;;;;;;;;;;;;;;;-1.22;61.02;95959.34;5073003;28;1067;-50
2022/03/24 04:40:13;;;;;;;;;;;;;;;-1.30;61.47;95958.84;5073376;28;1003;-50
2022/03/24 04:42:39;;;;;;;;;;;;;;;-1.19;61.11;95956.59;5072688;28;1095;-50
2022/03/24 04:45:06;;;;;;;;;;;;;;;-1.11;60.60;95962.34;5073135;28;1116;-50
2022/03/24 04:47:34;;;;;;;;;;;;;;;-1.36;61.57;95961.75;5072972;28;1032;-50
2022/03/24 04:50:00;;;;;;;;;;;;;;;-1.32;62.15;95958.91;5074908;28;965;-50
2022/03/24 04:52:26;;;;;;;;;;;;;;;-1.16;61.72;95961.69;5076848;28;1977;-50
2022/03/24 04:54:52;;;;;;;;;;;;;;;-0.74;61.32;95955.38;5076729;28;1067;-51
2022/03/24 04:57:18;;;;;;;;;;;;;;;-0.80;60.92;95956.53;5077183;28;961;-50
2022/03/24 04:59:44;;;;;;;;;;;;;;;-0.58;60.25;95959.91;5076750;28;1048;-51
2022/03/24 05:02:15;;;;;;;;;;;;;;;-0.33;60.05;95960.41;5076851;28;1035;-50
2022/03/24 05:04:44;;;;;;;;;;;;;;;-0.04;58.97;95972.13;5076692;28;1092;-50
2022/03/24 05:07:10;;;;;;;;;;;;;;;0.11;58.86;95967.84;5077219;28;977;-50
2022/03/24 05:09:37;;;;;;;;;;;;;;;0.09;58.79;95972.31;5076820;28;969;-51
2022/03/24 05:12:03;;;;;;;;;;;;;;;0.35;58.60;95963.13;5076398;28;1992;-51
2022/03/24 05:14:31;;;;;;;;;;;;;;;0.69;57.84;95966.63;5076608;28;1043;-51
2022/03/24 05:16:57;;;;;;;;;;;;;;;0.87;57.27;95963.94;5076514;28;1129;-50
2022/03/24 05:19:23;;;;;;;;;;;;;;;0.58;58.27;95958.44;5076404;28;985;-50
2022/03/24 05:21:49;;;;;;;;;;;;;;;0.60;58.56;95966.25;5076674;28;968;-50
2022/03/24 05:24:16;;;;;;;;;;;;;;;0.73;58.29;95955.00;5076273;28;1180;-51
2022/03/24 05:26:43;;;;;;;;;;;;;;;1.18;57.26;95952.59;5076474;28;1048;-50
2022/03/24 05:29:09;;;;;;;;;;;;;;;1.53;56.86;95955.91;5076141;28;1078;-50
2022/03/24 05:31:35;;;;;;;;;;;;;;;1.74;56.36;95959.09;5076075;28;2054;-51
2022/03/24 05:34:01;;;;;;;;;;;;;;;2.01;56.11;95957.59;5076128;28;966;-50
2022/03/24 05:36:27;;;;;;;;;;;;;;;2.07;55.18;95962.53;5076488;28;1056;-50
2022/03/24 05:38:53;;;;;;;;;;;;;;;2.38;54.58;95955.47;5074953;28;953;-50
2022/03/24 05:41:19;;;;;;;;;;;;;;;2.72;54.15;95954.28;5076306;28;968;-50
2022/03/24 05:44:02;;;;;;;;;;;;;;;3.05;53.70;95961.88;5075732;28;1012;-50
2022/03/24 05:46:32;;;;;;;;;;;;;;;3.25;53.09;95958.00;5076026;28;1198;-50
2022/03/24 05:48:58;;;;;;;;;;;;;;;3.39;53.11;95956.28;5076005;28;1162;-50
2022/03/24 05:51:24;;;;;;;;;;;;;;;3.48;53.32;95955.72;5075176;28;1921;-51
2022/03/24 05:53:51;;;;;;;;;;;;;;;3.63;52.35;95957.38;5074650;28;1022;-51
2022/03/24 05:56:18;;;;;;;;;;;;;;;3.94;50.02;95960.66;5074880;28;1034;-50
2022/03/24 05:58:45;;;;;;;;;;;;;;;4.06;48.53;95953.69;5074536;28;968;-51
2022/03/24 06:01:11;;;;;;;;;;;;;;;4.46;48.54;95953.69;5074097;28;1091;-50
2022/03/24 06:03:37;;;;;;;;;;;;;;;4.94;49.66;95958.38;5074682;28;1055;-50
2022/03/24 06:06:03;;;;;;;;;;;;;;;4.92;50.08;95960.28;5074402;28;1040;-50
2022/03/24 06:08:30;;;;;;;;;;;;;;;5.13;49.28;95949.97;5074664;28;1032;-51
2022/03/24 06:10:58;;;;;;;;;;;;;;;5.54;48.11;95960.28;5074411;28;1078;-50
2022/03/24 06:13:25;;;;;;;;;;;;;;;5.82;47.44;95959.16;5074247;28;1906;-50
2022/03/24 06:15:51;;;;;;;;;;;;;;;6.25;46.31;95960.44;5074199;28;1007;-50
2022/03/24 06:18:17;;;;;;;;;;;;;;;6.62;44.82;95970.94;5074748;28;1007;-50
2022/03/24 06:20:43;;;;;;;;;;;;;;;7.43;42.04;95964.63;5074342;28;1003;-50
2022/03/24 06:23:09;;;;;;;;;;;;;;;8.86;39.35;95964.56;5074521;28;1024;-51
2022/03/24 06:25:37;;;;;;;;;;;;;;;11.23;35.45;95962.06;5074258;28;1051;-51
2022/03/24 06:28:05;;;;;;;;;;;;;;;13.49;31.42;95961.22;5074106;28;1012;-49
2022/03/24 06:30:31;;;;;;;;;;;;;;;15.25;28.66;95958.59;5074058;28;1106;-48
2022/03/24 06:32:57;;;;;;;;;;;;;;;16.26;26.74;95962.50;5073959;28;1985;-49
2022/03/24 06:35:24;;;;;;;;;;;;;;;16.54;26.28;95957.44;5074138;28;956;-50
2022/03/24 06:37:51;;;;;;;;;;;;;;;16.81;25.71;95950.69;5074052;28;1111;-50
2022/03/24 06:40:17;;;;;;;;;;;;;;;15.67;26.51;95958.34;5074003;28;980;-49
2022/03/24 06:42:44;;;;;;;;;;;;;;;14.59;28.51;95959.44;5073813;28;1059;-50
2022/03/24 06:45:11;;;;;;;;;;;;;;;14.38;29.27;95954.50;5073845;28;1063;-50
2022/03/24 06:47:39;;;;;;;;;;;;;;;14.53;28.62;95954.69;5073859;28;1008;-50
2022/03/24 06:50:05;;;;;;;;;;;;;;;15.87;27.62;95945.31;5027238;28;1325888;-51
2022/03/24 06:52:32;;;;;;;;;;;;;;;16.70;26.40;95943.84;5074866;28;1989;-49
2022/03/24 06:54:58;;;;;;;;;;;;;;;17.69;25.33;95934.88;5074536;28;961;-49
2022/03/24 06:57:24;;;;;;;;;;;;;;;17.82;24.78;95942.34;5074618;28;1983;-49
2022/03/24 06:59:50;;;;;;;;;;;;;;;18.82;24.29;95949.84;5074672;28;1023;-51
2022/03/24 07:02:16;;;;;;;;;;;;;;;20.63;22.13;95960.88;5074828;28;1011;-51
2022/03/24 07:04:42;;;;;;;;;;;;;;;21.91;20.50;95951.78;5074504;28;1107;-51
2022/03/24 07:07:08;;;;;;;;;;;;;;;23.36;19.61;95951.31;5074428;28;976;-51
2022/03/24 07:09:35;;;;;;;;;;;;;;;23.83;18.61;95950.94;5074541;28;1036;-51
2022/03/24 07:12:01;;;;;;;;;;;;;;;24.68;17.84;95952.94;5073164;28;1902;-51
2022/03/24 07:14:28;;;;;;;;;;;;;;;24.66;18.45;95955.09;5074356;28;1024;-51
2022/03/24 07:16:54;;;;;;;;;;;;;;;24.77;17.77;95950.72;5073970;28;1033;-51
2022/03/24 07:19:20;;;;;;;;;;;;;;;25.31;17.37;95954.38;5074269;28;1123;-51
2022/03/24 07:21:46;;;;;;;;;;;;;;;25.90;16.96;95953.63;5073997;28;980;-51
2022/03/24 07:24:12;;;;;;;;;;;;;;;26.71;16.71;95953.78;5073040;28;1024;-52
2022/03/24 07:26:39;;;;;;;;;;;;;;;26.80;16.74;95952.31;5073956;28;1072;-52
2022/03/24 07:29:05;;;;;;;;;;;;;;;27.43;16.14;95941.41;5074077;28;1088;-51
2022/03/24 07:31:31;;;;;;;;;;;;;;;28.18;15.48;95953.06;5073916;28;1989;-51
2022/03/24 07:33:58;;;;;;;;;;;;;;;27.63;15.58;95944.50;5074182;28;998;-52
2022/03/24 07:36:25;;;;;;;;;;;;;;;28.02;15.49;95947.34;5073944;28;1048;-52
2022/03/24 07:38:52;;;;;;;;;;;;;;;27.87;15.26;95940.75;5073976;28;1047;-52
2022/03/24 07:41:19;;;;;;;;;;;;;;;28.10;14.82;95948.84;5073725;28;1041;-52
2022/03/24 07:43:45;;;;;;;;;;;;;;;28.03;15.14;95957.25;5073577;28;1067;-52
2022/03/24 07:46:12;;;;;;;;;;;;;;;28.57;14.99;95947.56;5073528;28;1012;-52
2022/03/24 07:48:38;;;;;;;;;;;;;;;29.41;14.20;95951.00;5073922;28;981;-51
2022/03/24 07:51:05;;;;;;;;;;;;;;;28.68;14.42;95943.84;5073198;28;1243;-52
2022/03/24 07:53:32;;;;;;;;;;;;;;;29.07;14.30;95942.91;5073667;28;1985;-51
2022/03/24 07:55:58;;;;;;;;;;;;;;;29.56;13.92;95942.88;5073370;28;1067;-53
2022/03/24 07:58:25;;;;;;;;;;;;;;;30.11;13.54;95943.59;5073659;28;1036;-51
2022/03/24 08:00:51;;;;;;;;;;;;;;;29.72;13.82;95932.78;5072222;28;1032;-51
2022/03/24 08:03:19;;;;;;;;;;;;;;;29.77;14.00;95930.94;5073682;28;968;-51
2022/03/24 08:05:46;;;;;;;;;;;;;;;30.65;13.19;95926.78;5072457;28;1432;-51
2022/03/24 08:08:14;;;;;;;;;;;;;;;29.78;13.94;95929.00;5073473;28;1020;-51
2022/03/24 08:10:41;;;;;;;;;;;;;;;28.23;14.23;95909.16;5073434;28;1056;-51
2022/03/24 08:13:08;;;;;;;;;;;;;;;27.24;15.60;95916.06;5073111;28;1997;-51
2022/03/24 08:15:37;;;;;;;;;;;;;;;25.27;16.59;95912.13;5073525;28;1048;-52
2022/03/24 08:18:06;;;;;;;;;;;;;;;22.89;18.45;95906.31;5073103;28;1083;-50
2022/03/24 08:20:33;;;;;;;;;;;;;;;21.55;20.12;95897.81;5073348;28;1012;-50
2022/03/24 08:22:59;;;;;;;;;;;;;;;20.97;20.68;95893.00;5072976;28;1004;-50
2022/03/24 08:25:25;;;;;;;;;;;;;;;20.45;21.62;95888.09;5073197;28;1011;-50
2022/03/24 08:27:52;;;;;;;;;;;;;;;20.35;21.84;95879.47;5073036;28;1955;-49
2022/03/24 08:30:18;;;;;;;;;;;;;;;20.63;22.25;95889.41;5073344;28;980;-49
2022/03/24 08:32:44;;;;;;;;;;;;;;;20.33;21.95;95881.56;5073040;28;1996;-49
2022/03/24 08:35:10;;;;;;;;;;;;;;;19.99;22.64;95877.88;5073173;28;1048;-49
2022/03/24 08:37:37;;;;;;;;;;;;;;;20.28;22.65;95884.06;5072967;28;1080;-50
2022/03/24 08:40:04;;;;;;;;;;;;;;;20.01;22.55;95880.41;5073277;28;1039;-49
2022/03/24 08:42:30;;;;;;;;;;;;;;;19.99;22.36;95869.75;5072729;28;1024;-49
2022/03/24 08:44:57;;;;;;;;;;;;;;;20.27;22.92;95866.09;5071931;28;980;-48
2022/03/24 08:47:24;;;;;;;;;;;;;;;19.95;22.14;95867.66;5071988;28;1646;-49
2022/03/24 08:49:51;;;;;;;;;;;;;;;19.81;21.89;95862.16;5072052;28;1653;-49
2022/03/24 08:52:17;;;;;;;;;;;;;;;20.08;23.25;95862.28;5072598;28;2001;-49
2022/03/24 08:54:44;;;;;;;;;;;;;;;20.21;22.78;95848.75;5072992;28;1033;-49
2022/03/24 08:57:10;;;;;;;;;;;;;;;20.38;23.20;95851.91;5072736;28;1111;-49
2022/03/24 08:59:36;;;;;;;;;;;;;;;20.24;22.88;95853.78;5072913;28;1008;-49
2022/03/24 09:02:04;;;;;;;;;;;;;;;20.42;21.82;95846.91;5072702;28;1068;-49
2022/03/24 09:04:30;;;;;;;;;;;;;;;20.31;22.86;95851.06;5072809;28;1032;-49
2022/03/24 09:06:56;;;;;;;;;;;;;;;19.99;22.88;95848.03;5072507;28;1040;-51
2022/03/24 09:09:23;;;;;;;;;;;;;;;19.82;22.97;95844.81;5071842;28;997;-49
2022/03/24 09:11:49;;;;;;;;;;;;;;;19.64;23.41;95834.50;5072604;28;1914;-49
2022/03/24 09:14:16;;;;;;;;;;;;;;;19.43;24.27;95840.03;5072584;28;1095;-49
2022/03/24 09:16:42;;;;;;;;;;;;;;;19.20;23.39;95834.84;5072913;28;992;-49
2022/03/24 09:19:08;;;;;;;;;;;;;;;18.87;23.73;95836.28;5071314;28;1107;-49
2022/03/24 09:21:35;;;;;;;;;;;;;;;19.27;23.46;95835.75;5072647;28;1027;-49
2022/03/24 09:24:01;;;;;;;;;;;;;;;19.67;22.80;95830.53;5072781;28;968;-50
2022/03/24 09:26:27;;;;;;;;;;;;;;;19.89;22.70;95831.31;5071459;28;1062;-49
2022/03/24 09:28:53;;;;;;;;;;;;;;;19.77;22.33;95825.63;5072462;28;970;-49
2022/03/24 09:31:19;;;;;;;;;;;;;;;19.60;20.84;95822.38;5071484;28;1985;-49
2022/03/24 09:33:46;;;;;;;;;;;;;;;19.73;22.57;95824.34;5072458;28;961;-50
2022/03/24 09:36:12;;;;;;;;;;;;;;;19.96;22.11;95815.88;5074268;28;1033;-49
2022/03/24 09:38:39;;;;;;;;;;;;;;;20.21;22.25;95816.16;5076072;28;1013;-49
2022/03/24 09:41:06;;;;;;;;;;;;;;;20.20;20.79;95810.94;5076331;28;1059;-49
2022/03/24 09:43:34;;;;;;;;;;;;;;;20.07;20.98;95818.00;5075968;28;1023;-49
2022/03/24 09:46:01;;;;;;;;;;;;;;;20.16;21.06;95806.97;5075901;28;1079;-49
2022/03/24 09:48:28;;;;;;;;;;;;;;;20.26;20.75;95805.53;5075833;28;1029;-49
2022/03/24 09:54:16;;;;;;;;;;;;;;;20.61;20.97;95799.94;4379912;28;2529;-49
2022/03/24 09:56:42;;;;;;;;;;;;;;;20.49;20.47;95793.44;5075866;28;1028;-49
2022/03/24 09:59:11;;;;;;;;;;;;;;;20.40;19.58;95791.97;5075437;28;1025;-49
2022/03/24 10:01:39;;;;;;;;;;;;;;;20.46;19.83;95785.69;5075781;28;1095;-49
2022/03/24 10:04:07;;;;;;;;;;;;;;;20.81;19.82;95777.38;5075733;28;1011;-49
2022/03/24 10:06:34;;;;;;;;;;;;;;;20.88;19.74;95775.50;5075916;28;1208;-49
2022/03/24 10:09:00;;;;;;;;;;;;;;;21.10;20.23;95775.28;5074395;28;1060;-49
2022/03/24 10:11:26;;;;;;;;;;;;;;;21.24;19.34;95769.56;5075575;28;1992;-49
2022/03/24 10:13:54;;;;;;;;;;;;;;;21.21;19.07;95763.75;5075053;28;1095;-49
2022/03/24 10:16:33;;;;;;;;;;;;;;;21.23;19.10;95767.09;5075832;28;1031;-49
2022/03/24 10:19:01;;;;;;;;;;;;;;;21.03;19.17;95757.06;5075266;28;1031;-48
2022/03/24 10:21:29;;;;;;;;;;;;;;;20.90;18.85;95753.53;5075496;28;1060;-49
2022/03/24 10:23:57;;;;;;;;;;;;;;;21.09;18.90;95749.94;5075195;28;1008;-49
2022/03/24 10:26:38;;;;;;;;;;;;;;;21.19;17.98;95744.06;5075360;28;1031;-49
2022/03/24 10:29:04;;;;;;;;;;;;;;;21.20;18.96;95741.13;5075293;28;941;-49
2022/03/24 10:31:35;;;;;;;;;;;;;;;21.32;18.63;95740.47;5075380;28;1910;-49
2022/03/24 10:34:01;;;;;;;;;;;;;;;20.90;17.99;95738.06;5075190;28;1043;-50
2022/03/24 10:36:27;;;;;;;;;;;;;;;20.83;17.40;95724.50;5075294;28;1135;-49
2022/03/24 10:38:54;;;;;;;;;;;;;;;20.85;18.86;95722.41;5074847;28;1048;-49
2022/03/24 10:41:25;;;;;;;;;;;;;;;20.75;17.98;95719.25;5074187;28;969;-48
2022/03/24 10:43:53;;;;;;;;;;;;;;;20.69;18.38;95713.84;5074655;28;1036;-48
2022/03/24 10:46:21;;;;;;;;;;;;;;;20.56;17.00;95706.50;5074755;28;1095;-49
2022/03/24 10:48:47;;;;;;;;;;;;;;;20.46;16.52;95702.34;5073953;28;1059;-48
2022/03/24 10:51:27;;;;;;;;;;;;;;;20.51;17.52;95695.44;5074874;28;1234;-49
2022/03/24 10:53:54;;;;;;;;;;;;;;;20.70;17.36;95691.91;5074447;28;1101;-51
2022/03/24 10:56:29;;;;;;;;;;;;;;;20.74;17.20;95687.72;5074979;28;1012;-48
2022/03/24 10:58:59;;;;;;;;;;;;;;;20.81;17.07;95688.56;5074450;28;925;-50
2022/03/24 11:01:28;;;;;;;;;;;;;;;20.95;16.87;95691.25;5074784;28;1016;-48
2022/03/24 11:03:55;;;;;;;;;;;;;;;20.85;16.93;95700.66;5074270;28;1044;-49
2022/03/24 11:06:27;;;;;;;;;;;;;;;20.85;16.17;95681.63;5073710;28;993;-49
2022/03/24 11:08:54;;;;;;;;;;;;;;;20.89;17.34;95673.91;5074567;28;1058;-48
2022/03/24 11:11:21;;;;;;;;;;;;;;;20.87;17.69;95670.56;5074427;28;1906;-49
2022/03/24 11:13:47;;;;;;;;;;;;;;;20.93;16.80;95663.44;5074074;28;1011;-50
2022/03/24 11:16:13;;;;;;;;;;;;;;;20.62;16.42;95663.09;5074954;28;960;-50
2022/03/24 11:18:40;;;;;;;;;;;;;;;20.41;16.65;95665.97;5074154;28;1040;-49
2022/03/24 11:21:15;;;;;;;;;;;;;;;20.40;16.01;95654.28;5074464;28;960;-50
2022/03/24 11:23:44;;;;;;;;;;;;;;;20.32;15.98;95657.22;5074097;28;1087;-49
2022/03/24 11:26:10;;;;;;;;;;;;;;;20.10;16.62;95651.16;5074208;28;1044;-48
2022/03/24 11:28:37;;;;;;;;;;;;;;;20.25;18.16;95657.22;5074029;28;992;-49
2022/03/24 11:31:13;;;;;;;;;;;;;;;20.40;17.23;95654.28;5074045;28;1847;-48
2022/03/24 11:33:41;;;;;;;;;;;;;;;20.50;16.77;95644.88;5074135;28;1905;-50
2022/03/24 11:36:09;;;;;;;;;;;;;;;20.52;16.46;95648.22;5073822;28;1850;-49
2022/03/24 11:38:36;;;;;;;;;;;;;;;20.40;15.74;95634.47;5074201;28;984;-50
2022/03/24 11:41:04;;;;;;;;;;;;;;;20.33;16.77;95629.00;5073783;28;957;-48
2022/03/24 11:43:31;;;;;;;;;;;;;;;20.41;16.54;95634.25;5073692;28;957;-48
2022/03/24 11:46:09;;;;;;;;;;;;;;;20.42;16.11;95633.19;5073585;28;1000;-48
2022/03/24 11:48:35;;;;;;;;;;;;;;;20.31;15.57;95622.13;5074144;28;1019;-48
2022/03/24 11:51:21;;;;;;;;;;;;;;;20.19;15.11;95617.34;5073583;28;1153;-49
2022/03/24 11:54:04;;;;;;;;;;;;;;;20.20;15.25;95623.59;5073468;28;1191;-48
2022/03/24 11:56:30;;;;;;;;;;;;;;;20.21;15.90;95614.41;5073946;28;957;-48
2022/03/24 11:58:56;;;;;;;;;;;;;;;20.29;15.93;95608.75;5072030;28;1043;-48
2022/03/24 12:01:24;;;;;;;;;;;;;;;20.32;15.74;95608.34;5073544;28;1056;-48
2022/03/24 12:03:54;;;;;;;;;;;;;;;20.29;15.84;95614.19;5073454;28;1032;-48
2022/03/24 12:06:40;;;;;;;;;;;;;;;20.31;15.55;95606.66;5073456;28;1020;-49
2022/03/24 12:09:07;;;;;;;;;;;;;;;20.27;16.32;95616.28;5073243;28;1145;-49
2022/03/24 12:11:33;;;;;;;;;;;;;;;20.13;15.51;95595.63;5073569;28;1993;-49
2022/03/24 12:14:00;;;;;;;;;;;;;;;20.04;16.04;95603.97;5073120;28;965;-49
2022/03/24 12:16:27;;;;;;;;;;;;;;;20.12;16.06;95596.69;5073282;28;1021;-49
2022/03/24 12:18:54;;;;;;;;;;;;;;;20.18;15.97;95602.09;5073259;28;1013;-49
2022/03/24 12:21:21;;;;;;;;;;;;;;;20.16;15.53;95597.91;5073139;28;1036;-49
2022/03/24 12:24:06;;;;;;;;;;;;;;;20.02;15.99;95588.97;5073272;28;1031;-49
2022/03/24 12:26:39;;;;;;;;;;;;;;;20.08;15.22;95594.38;5073393;28;1054;-49
2022/03/24 12:29:11;;;;;;;;;;;;;;;20.08;15.08;95597.09;5073098;28;1027;-49
2022/03/24 12:31:57;;;;;;;;;;;;;;;20.02;14.96;95587.06;5073625;28;1910;-49
2022/03/24 12:34:38;;;;;;;;;;;;;;;19.92;15.14;95586.66;5072961;28;1087;-49
2022/03/24 12:37:05;;;;;;;;;;;;;;;19.87;15.36;95564.75;5073262;28;1032;-49
2022/03/24 12:39:35;;;;;;;;;;;;;;;20.04;15.51;95573.28;5072954;28;1001;-49
2022/03/24 12:42:12;;;;;;;;;;;;;;;19.97;14.56;95567.03;5072792;28;1130;-49
2022/03/24 12:44:50;;;;;;;;;;;;;;;19.91;16.38;95566.00;5072937;28;1036;-49
2022/03/24 12:47:30;;;;;;;;;;;;;;;19.92;15.83;95570.38;5073336;28;1025;-49
2022/03/24 12:49:57;;;;;;;;;;;;;;;19.79;15.21;95570.38;5072751;28;1036;-49
2022/03/24 12:52:43;;;;;;;;;;;;;;;19.76;15.69;95565.38;5072923;28;1915;-49
2022/03/24 12:55:20;;;;;;;;;;;;;;;19.77;15.34;95559.75;5072745;28;1117;-49
2022/03/24 12:58:05;;;;;;;;;;;;;;;19.76;15.43;95554.50;5073025;28;933;-49
2022/03/24 13:00:33;;;;;;;;;;;;;;;19.76;15.48;95555.34;5072932;28;1008;-49
2022/03/24 13:03:03;;;;;;;;;;;;;;;19.75;15.21;95544.69;5072955;28;1009;-49
2022/03/24 13:05:31;;;;;;;;;;;;;;;19.69;15.32;95547.19;5071599;28;1132;-49
2022/03/24 13:07:58;;;;;;;;;;;;;;;19.64;15.63;95546.97;5073047;28;1032;-49